createdAt,value
2023-01-19T06:49:30.865Z,98762.88
2023-01-19T06:54:32.928Z,98764.81
2023-01-19T06:59:34.986Z,98759.47
2023-01-19T07:04:37.049Z,98751.41
2023-01-19T07:09:39.107Z,98736.28
2023-01-19T07:14:41.153Z,98725.34
2023-01-19T07:19:43.336Z,98720.84
2023-01-19T07:24:45.561Z,98738.56
2023-01-19T07:29:47.659Z,98758.22
2023-01-19T07:34:49.815Z,98765.91
2023-01-19T07:39:51.907Z,98767.88
2023-01-19T07:44:53.984Z,98766.16
2023-01-19T07:49:56.046Z,98775.09
2023-01-19T07:54:59.231Z,98776.22
2023-01-19T08:00:01.543Z,98778.00
2023-01-19T08:05:04.078Z,98782.63
2023-01-19T08:10:06.676Z,98788.41
2023-01-19T08:15:11.785Z,98785.78
2023-01-19T08:20:14.151Z,98777.50
2023-01-19T08:25:16.439Z,98771.78
2023-01-19T08:30:18.522Z,98768.38
2023-01-19T08:35:20.850Z,98756.19
2023-01-19T08:40:23.169Z,98777.88
2023-01-19T08:45:25.252Z,98771.06
2023-01-19T08:50:31.870Z,98790.25
2023-01-19T08:55:36.017Z,98785.69
2023-01-19T09:00:39.748Z,98796.19
2023-01-19T09:05:42.014Z,98782.94
2023-01-19T09:10:47.216Z,98779.75
2023-01-19T09:15:49.539Z,98768.44
2023-01-19T09:20:51.652Z,98782.75
2023-01-19T09:25:59.401Z,98787.84
2023-01-19T09:31:06.413Z,98798.34
2023-01-19T09:36:08.616Z,98761.97
2023-01-19T09:41:21.185Z,98786.53
2023-01-19T09:46:28.095Z,98769.56
2023-01-19T09:51:36.317Z,98775.50
2023-01-19T09:56:41.061Z,98759.63
2023-01-19T10:02:08.131Z,98782.31
2023-01-19T10:07:24.648Z,98789.22
2023-01-19T10:12:38.550Z,98782.19
2023-01-19T10:17:49.592Z,98781.41
2023-01-19T10:22:51.925Z,98789.87
2023-01-19T10:27:54.022Z,98809.91
2023-01-19T10:32:56.165Z,98807.72
2023-01-19T10:38:01.998Z,98789.75
2023-01-19T10:43:36.259Z,98785.94
2023-01-19T10:48:42.142Z,98813.41
2023-01-19T10:53:57.714Z,98814.69
2023-01-19T10:59:01.446Z,98805.63
2023-01-19T11:04:29.417Z,98813.09
2023-01-19T11:09:31.542Z,98814.84
2023-01-19T11:14:33.646Z,98826.87
2023-01-19T11:19:35.775Z,98828.69
2023-01-19T11:24:39.375Z,98829.03
2023-01-19T11:29:48.243Z,98822.00
2023-01-19T11:34:50.418Z,98804.37
2023-01-19T11:39:58.669Z,98817.78
2023-01-19T11:45:03.697Z,98819.72
2023-01-19T11:50:25.278Z,98844.59
2023-01-19T11:55:27.258Z,98842.22
2023-01-19T12:00:41.057Z,98839.91
2023-01-19T12:05:51.223Z,98850.22
2023-01-19T12:10:55.893Z,98853.16
2023-01-19T12:16:38.949Z,98853.62
2023-01-19T12:21:41.851Z,98878.19
2023-01-19T12:26:53.023Z,98881.09
2023-01-19T12:32:13.315Z,98882.47
2023-01-19T12:37:30.653Z,98882.97
2023-01-19T12:42:33.855Z,98895.00
2023-01-19T12:47:37.330Z,98903.75
2023-01-19T12:52:47.861Z,98890.03
2023-01-19T12:58:17.801Z,98899.25
2023-01-19T13:03:19.860Z,98903.00
2023-01-19T13:08:49.250Z,98922.22
2023-01-19T13:14:00.350Z,98935.69
2023-01-19T13:19:05.296Z,98957.47
2023-01-19T13:24:09.706Z,98964.41
2023-01-19T13:29:34.509Z,98975.62
2023-01-19T13:34:42.677Z,98985.78
2023-01-19T13:39:48.976Z,99000.47
2023-01-19T13:44:54.569Z,99008.53
2023-01-19T13:49:58.613Z,99005.31
2023-01-19T13:55:04.076Z,99012.31
2023-01-19T14:00:06.888Z,99022.56
2023-01-19T14:05:27.311Z,99031.31
2023-01-19T14:10:31.343Z,99030.41
2023-01-19T14:15:34.876Z,99027.38
2023-01-19T14:20:37.332Z,99039.25
2023-01-19T14:25:44.621Z,99032.22
2023-01-19T14:31:01.451Z,99012.84
2023-01-19T14:36:27.111Z,99018.66
2023-01-19T14:41:33.400Z,99044.31
2023-01-19T14:46:35.907Z,99051.44
2023-01-19T14:51:38.068Z,99048.50
2023-01-19T14:56:40.137Z,99051.78
2023-01-19T15:01:42.326Z,99068.00
2023-01-19T15:06:45.921Z,99082.19
2023-01-19T15:11:49.457Z,99093.37
2023-01-19T15:16:51.617Z,99126.09
2023-01-19T15:21:53.777Z,99131.53
2023-01-19T15:26:58.379Z,99121.06
2023-01-19T15:32:00.749Z,99133.06
2023-01-19T15:37:02.913Z,99129.00
2023-01-19T15:42:06.771Z,99161.13
2023-01-19T15:47:09.918Z,99159.72
2023-01-19T15:52:11.964Z,99133.97
2023-01-19T15:57:14.029Z,99144.81
2023-01-19T16:02:16.309Z,99176.69
2023-01-19T16:07:19.485Z,99174.47
2023-01-19T16:12:21.685Z,99213.75
2023-01-19T16:17:23.837Z,99206.69
2023-01-19T16:22:25.968Z,99218.13
2023-01-19T16:27:29.032Z,99223.47
2023-01-19T16:32:33.424Z,99226.03
2023-01-19T16:37:36.367Z,99253.31
2023-01-19T16:42:39.724Z,99273.25
2023-01-19T16:47:42.021Z,99278.38
2023-01-19T16:52:44.560Z,99294.88
2023-01-19T16:59:52.128Z,99304.34
2023-01-19T17:04:54.290Z,99302.25
2023-01-19T17:09:56.420Z,99317.19
2023-01-19T17:14:58.470Z,99315.22
2023-01-19T17:20:00.574Z,99339.47
2023-01-19T17:25:02.923Z,99346.28
2023-01-19T17:30:05.297Z,99352.38
2023-01-19T17:35:07.696Z,99380.50
2023-01-19T17:40:10.697Z,99371.38
2023-01-19T17:45:12.974Z,99382.81
2023-01-19T17:50:15.347Z,99380.50
2023-01-19T17:55:18.409Z,99391.16
2023-01-19T18:00:20.848Z,99398.28
2023-01-19T18:05:23.303Z,99371.22
2023-01-19T18:10:25.463Z,99379.09
2023-01-19T18:15:27.722Z,99398.44
2023-01-19T18:20:31.703Z,99408.09
2023-01-19T18:25:33.820Z,99402.75
2023-01-19T18:30:37.131Z,99402.97
2023-01-19T18:35:39.325Z,99409.81
2023-01-19T18:40:41.770Z,99411.66
2023-01-19T18:45:48.057Z,99408.91
2023-01-19T18:50:50.646Z,99405.63
2023-01-19T18:55:54.576Z,99422.06
2023-01-19T19:00:56.749Z,99426.53
2023-01-19T19:06:03.275Z,99429.63
2023-01-19T19:11:09.191Z,99433.56
2023-01-19T19:16:12.724Z,99434.38
2023-01-19T19:21:16.236Z,99430.28
2023-01-19T19:26:18.976Z,99445.81
2023-01-19T19:31:22.881Z,99450.72
2023-01-19T19:36:27.372Z,99473.03
2023-01-19T19:41:29.767Z,99463.72
2023-01-19T19:46:31.994Z,99483.41
2023-01-19T19:51:34.204Z,99484.72
2023-01-19T19:56:36.387Z,99504.25
2023-01-19T20:01:38.624Z,99509.28
2023-01-19T20:06:44.723Z,99514.00
2023-01-19T20:11:49.038Z,99509.75
2023-01-19T20:16:51.359Z,99504.03
2023-01-19T20:21:53.451Z,99512.22
2023-01-19T20:26:57.184Z,99509.00
2023-01-19T20:31:59.590Z,99497.66
2023-01-19T20:37:03.990Z,99504.69
2023-01-19T20:42:09.655Z,99501.41
2023-01-19T20:47:11.845Z,99511.28
2023-01-19T20:52:13.941Z,99523.78
2023-01-19T20:57:16.021Z,99519.53
2023-01-19T21:02:18.627Z,99538.59
2023-01-19T21:07:20.799Z,99515.56
2023-01-19T21:12:23.220Z,99511.03
2023-01-19T21:17:25.505Z,99511.13
2023-01-19T21:22:27.669Z,99523.00
2023-01-19T21:27:29.754Z,99518.91
2023-01-19T21:32:31.861Z,99513.37
2023-01-19T21:37:33.934Z,99531.47
2023-01-19T21:42:36.054Z,99525.50
2023-01-19T21:47:38.353Z,99540.25
2023-01-19T21:52:40.455Z,99578.25
2023-01-19T21:57:42.521Z,99605.59
2023-01-19T22:02:49.413Z,99644.72
2023-01-19T22:08:00.734Z,99631.50
2023-01-19T22:13:03.295Z,99609.88
2023-01-19T22:18:05.367Z,99579.69
2023-01-19T22:23:07.491Z,99580.56
2023-01-19T22:28:09.575Z,99616.53
2023-01-19T22:33:11.670Z,99602.31
2023-01-19T22:38:13.724Z,99600.72
2023-01-19T22:43:15.769Z,99600.53
2023-01-19T22:48:18.099Z,99596.44
2023-01-19T22:53:20.176Z,99578.16
2023-01-19T22:58:22.271Z,99600.97
2023-01-19T23:03:24.306Z,99594.38
2023-01-19T23:08:26.364Z,99591.50
2023-01-19T23:13:28.487Z,99590.88
2023-01-19T23:18:31.258Z,99554.44
2023-01-19T23:23:34.115Z,99532.06
2023-01-19T23:28:36.990Z,99555.06
2023-01-19T23:33:39.041Z,99550.34
2023-01-19T23:38:41.620Z,99569.50
2023-01-19T23:43:44.175Z,99576.31
2023-01-19T23:48:47.037Z,99569.38
2023-01-19T23:53:49.705Z,99565.31
2023-01-19T23:59:06.414Z,99587.50
